Altamont, SD

12:42 PM CDT on July 24, 2014 (GMT -0500)
Canby (KCNB) Elev 1194 ft | 44.73 °N, 96.26 °W | Change Station
Active Advisory: Severe Thunderstorm Warning

Current weather conditions updated 8 minutes ago

Partly Cloudy
Partly Cloudy
75 °F
Feels Like 75 °F
N
14
Wind Variable Wind from South
Gusts 20 mph

Today is forecast to be nearly the same temperature as yesterday. A few thunderstorms possible.

Today
High -- | Low -- °F
--% Chance of Precip.
Yesterday
High -- | Low -- °F
Precip. -- in
6:04 AM 9:01 PM
Waning Crescent, 4% visible
Pressure 29.99 in
Visibility 10.0 miles
Clouds Clear
Dew Point 60 °F
Humidity 59%
Rainfall 0.00 in
Snow Depth Not available.
UV 10 out of 12
Pollen 5.90 out of 12
Air Quality Not available.
Flu Activity Not available.
METAR KCNB 241734Z AUTO 17012G17KT 10SM CLR 24/16 A2999 RMK AO2 LTG DSNT N S AND NW T02400155

More Conditions Fewer Conditions

Pressure 29.99 in
Visibility 10.0 miles
Clouds Clear
Dew Point 60 °F
Humidity 59%
Rainfall 0.00 in
Snow Depth Not available.
UV 10 out of 12
Pollen 5.90 out of 12
Air Quality Not available.
Flu Activity Not available.
METAR KCNB 241734Z AUTO 17012G17KT 10SM CLR 24/16 A2999 RMK AO2 LTG DSNT N S AND NW T02400155

More Conditions Fewer Conditions

10-Day Weather Forecast

Almanac

Astronomy

Jul. 24, 2014 Rise Set
Actual Time 6:04 AM CDT 9:01 PM CDT
Civil Twilight 5:29 AM CDT 9:36 PM CDT
Nautical Twilight 4:45 AM CDT 10:20 PM CDT
Astronomical Twilight 3:52 AM CDT 11:12 PM CDT
Moon 4:13 AM CDT 7:16 PM CDT
Length of Visible Light 16h 06m
Length of Day
14h 57m
Tomorrow will be 2m 6s shorter.
Waning Crescent, 4% of the Moon is Illuminated
Today
Waning Crescent
Jul 26
New
Aug 3
First Quarter
Aug 10
Full
Aug 17
Last Quarter

Today's Extremes

State Highs State Lows

Community

WunderPhotos

Upload Photos

1,737,079 photos uploaded!

Nearby

Snow Depth

Station Depth Elevation
Blind Park 0 in 6890 ft

Earthquake Activity

City Distance Mag. Time & Date
No recent earthquake activity has been reported nearby.
Minimum magnitude displayed is 2.5.

Coastal Water Temperatures

Place Temperature
No Stations Reporting

Nearby Weather Stations

Station Location Temp. Heat Index Dew Point Humidity Wind Precip. Elev Updated Type
East side of Watertown, SD, Watertown, SD 72.9 °F 75 °F 63 °F 72% SW  at  7.3 mph - / hr 1732 ft 12:36 PM CDT Normal
Turkey Ridge, Watertown, SD 71.7 °F 74 °F 62 °F 72% SSE  at  14.0 mph 0.00 in / hr 1795 ft 12:39 PM CDT Normal
South Lake Pelican, Watertown, SD 70.0 °F - 62 °F 75% SSE  at  13.0 mph 0.00 in / hr 1726 ft 12:42 PM CDT Rapid Fire

Show More Stations Show Fewer Stations